Plain, Wisconsin
Current Conditions -  °F | °C
As of 3:56 AM on Thursday 18 Dec 2014 (Local Time) from KLNR Reporting Station
Clear Clear  
Wind Chill: 19°   Ceiling: Unl
Heat Index: 19°   Visibility: 10mi
Dew Point: 12°   Wind: 3mph
Humidity: 74%   Direction: 310°NW
Pressure: 30.29"   Gusts: NA
Location:  43.28°N, 90.04°W
Report Text: KLNR 180956Z AUTO 31003KT 10SM CLR M07/M11 A3029 RMK AO2 SLP265 T10721111
Loading
Personal Weather Stations






























Interactive Weather Map New forecast layout! Learn more

10-Day Weather Forecast

Advertisements
Track Severe Weather on mobile